Terminal Aerodrome Forecast
Issued by NWS

Home | Current Version | Previous Version | Text Only | Print | Product List | Glossary On
Versions: 1 2 3 4 5 6 7 8 9 10 11 12 13 14 15 16 17 18 19 20 21 22 23 24 25 26 27 28 29 30 31 32 33
000
FTUS43 KOAX 182320
TAFBFF
TAF
KBFF 182320Z 1900/1924 18007KT P6SM VCTS SCT030 BKN050CB
      TEMPO 1900/1901 4SM TSRA BKN030CB
     FM190200 14008KT P6SM VCSH SCT020 BKN100
     FM190400 13008KT P6SM SCT100 BKN250
     FM191900 29010KT P6SM VCTS SCT040CB BKN100=

USA.gov is the U.S. government's official web portal to all federal, state and local government web resources and services.